Time;durP1;ratioP1;P1;durP2;ratioP2;P2;SDS_P1;SDS_P2;PMS_P1;PMS_P2;Temp;Humidity;BMP_temperature;BMP_pressure;BME280_temperature;BME280_humidity;BME280_pressure;Samples;Min_cycle;Max_cycle;Signal;HPM_P1;HPM_P2
2023/06/23 00:00:11;;;;;;;3.95;1.85;;;;;;;16.55;95.28;101415.19;10443219;28;20045;-75
2023/06/23 00:05:15;;;;;;;5.38;2.22;;;;;;;16.51;95.52;101410.75;10441933;28;20041;-76
2023/06/23 00:10:17;;;;;;;4.30;2.05;;;;;;;16.46;95.58;101415.16;10442236;28;20116;-75
2023/06/23 00:15:19;;;;;;;4.88;2.38;;;;;;;16.40;95.73;101422.19;10441307;28;20068;-74
2023/06/23 00:20:22;;;;;;;3.67;2.05;;;;;;;16.46;95.61;101433.66;10441450;28;20644;-75
2023/06/23 00:25:23;;;;;;;3.22;1.65;;;;;;;16.44;95.79;101442.47;10421259;28;20124;-75
2023/06/23 00:30:25;;;;;;;2.90;1.65;;;;;;;16.37;95.77;101455.66;10437427;28;20040;-76
2023/06/23 00:35:26;;;;;;;1.98;1.15;;;;;;;16.36;95.85;101462.72;10439236;28;20435;-75
2023/06/23 00:40:28;;;;;;;4.35;2.30;;;;;;;16.40;95.79;101476.81;10441347;28;20053;-75
2023/06/23 00:45:30;;;;;;;4.68;2.08;;;;;;;16.40;95.72;101482.97;10421247;28;20056;-75
2023/06/23 00:50:32;;;;;;;3.60;1.90;;;;;;;16.40;95.79;101477.69;10440918;28;20056;-76
2023/06/23 00:55:37;;;;;;;3.08;1.75;;;;;;;16.38;95.73;101487.38;10436691;28;20159;-76
2023/06/23 01:00:40;;;;;;;3.60;1.98;;;;;;;16.36;95.65;101477.66;10443005;28;20052;-76
2023/06/23 01:05:43;;;;;;;2.75;1.40;;;;;;;16.40;95.75;101495.31;10447735;28;20534;-75
2023/06/23 01:10:51;;;;;;;3.72;2.15;;;;;;;16.38;95.74;101482.09;10441759;28;20065;-76
2023/06/23 01:16:06;;;;;;;4.65;2.28;;;;;;;16.37;95.65;101488.25;10447147;28;20049;-76
2023/06/23 01:21:12;;;;;;;4.43;2.17;;;;;;;16.34;95.67;101475.03;10449273;28;20136;-76
2023/06/23 01:26:41;;;;;;;3.72;1.70;;;;;;;16.30;95.76;101478.53;10446037;28;20511;-76
2023/06/23 01:31:54;;;;;;;5.80;2.17;;;;;;;16.31;95.68;101480.28;10446891;28;20147;-75
2023/06/23 01:37:02;;;;;;;3.55;1.95;;;;;;;16.33;95.68;101470.59;10459528;28;20529;-77
2023/06/23 01:42:14;;;;;;;5.25;2.78;;;;;;;16.29;95.75;101475.88;10448580;28;20084;-76
2023/06/23 01:47:23;;;;;;;2.33;1.38;;;;;;;16.28;95.67;101471.50;10447392;28;20132;-76
2023/06/23 01:52:29;;;;;;;3.35;1.67;;;;;;;16.27;95.66;101470.59;10448184;28;20095;-76
2023/06/23 01:57:33;;;;;;;3.35;1.67;;;;;;;16.22;95.66;101467.91;10471524;28;20119;-76
2023/06/23 02:02:35;;;;;;;4.22;1.80;;;;;;;16.17;95.59;101479.34;10444144;28;20102;-76
2023/06/23 02:07:40;;;;;;;2.88;1.58;;;;;;;16.18;95.47;101495.22;10445254;28;20040;-76
2023/06/23 02:12:45;;;;;;;5.25;2.30;;;;;;;16.18;95.42;101495.22;10477109;28;20129;-76
2023/06/23 02:17:49;;;;;;;4.47;2.05;;;;;;;16.21;95.47;101482.03;10460955;28;20139;-76
2023/06/23 02:22:52;;;;;;;4.93;2.28;;;;;;;16.24;95.53;101470.56;10458961;28;20063;-76
2023/06/23 02:27:54;;;;;;;4.95;2.15;;;;;;;16.24;95.57;101462.63;10459648;28;20090;-77
2023/06/23 02:32:59;;;;;;;5.63;2.40;;;;;;;16.28;95.66;101461.78;10459825;28;20061;-76
2023/06/23 02:38:07;;;;;;;3.83;2.25;;;;;;;16.34;95.82;101464.44;10478100;28;20043;-77
2023/06/23 02:43:18;;;;;;;6.88;3.38;;;;;;;16.44;95.97;101466.25;10458191;28;20094;-75
2023/06/23 02:48:24;;;;;;;5.43;2.78;;;;;;;16.54;96.34;101471.56;10476173;28;20136;-75
2023/06/23 02:53:31;;;;;;;5.90;3.05;;;;;;;16.67;96.60;101493.66;10456274;28;20518;-75
2023/06/23 02:58:34;;;;;;;8.43;2.53;;;;;;;16.74;96.84;101501.59;10455625;28;20537;-75
2023/06/23 03:03:39;;;;;;;5.25;2.75;;;;;;;16.83;96.99;101494.56;10475111;28;20623;-75
2023/06/23 03:08:40;;;;;;;11.95;3.03;;;;;;;16.92;97.17;101511.38;10458263;28;20067;-74
2023/06/23 03:13:43;;;;;;;5.65;2.47;;;;;;;17.01;97.60;101507.88;10440944;28;20655;-76
2023/06/23 03:18:52;;;;;;;6.93;3.35;;;;;;;17.07;97.76;101521.13;10444424;28;20078;-76
2023/06/23 03:23:58;;;;;;;6.17;2.83;;;;;;;17.12;97.98;101531.72;10456212;28;20136;-76
2023/06/23 03:29:03;;;;;;;6.28;3.17;;;;;;;17.13;97.65;101542.31;10454511;28;20041;-76
2023/06/23 03:34:05;;;;;;;6.47;2.55;;;;;;;17.12;98.01;101551.09;10456663;28;20761;-75
2023/06/23 03:39:17;;;;;;;3.97;2.17;;;;;;;17.13;98.32;101563.47;10474416;28;20701;-75
2023/06/23 03:44:30;;;;;;;5.05;2.30;;;;;;;17.12;98.19;101566.09;10473821;28;20044;-75
2023/06/23 03:49:41;;;;;;;4.38;1.92;;;;;;;17.05;98.25;101575.78;10453974;28;20036;-74
2023/06/23 03:54:45;;;;;;;5.63;2.50;;;;;;;16.98;98.59;101584.59;10472007;28;20048;-75
2023/06/23 03:59:49;;;;;;;4.50;2.08;;;;;;;16.98;98.26;101586.34;10454785;28;20566;-75
2023/06/23 04:04:55;;;;;;;4.97;1.75;;;;;;;16.92;98.19;101601.31;10472414;28;20150;-75
2023/06/23 04:10:01;;;;;;;4.20;2.10;;;;;;;16.83;98.03;101601.25;10456329;28;20071;-75
2023/06/23 04:15:06;;;;;;;3.80;1.77;;;;;;;16.84;97.77;101605.66;10473439;28;20417;-75
2023/06/23 04:20:09;;;;;;;2.40;1.35;;;;;;;16.82;97.88;101614.47;10473330;28;20037;-75
2023/06/23 04:25:13;;;;;;;2.95;1.80;;;;;;;16.88;97.83;101623.34;10453767;28;20091;-75
2023/06/23 04:30:21;;;;;;;4.57;1.63;;;;;;;16.92;97.88;101632.19;10455061;28;20041;-75
2023/06/23 04:35:23;;;;;;;2.97;1.85;;;;;;;16.89;97.78;101637.44;10470989;28;20043;-74
2023/06/23 04:40:27;;;;;;;3.63;1.70;;;;;;;16.90;97.78;101639.22;10466902;28;20075;-75
2023/06/23 04:45:31;;;;;;;5.93;2.08;;;;;;;16.93;97.75;101645.44;10455825;28;20051;-75
2023/06/23 04:50:34;;;;;;;3.28;1.63;;;;;;;16.93;97.83;101647.16;10449394;28;20047;-75
2023/06/23 04:55:37;;;;;;;4.15;2.03;;;;;;;16.95;97.66;101642.78;10471985;28;20075;-75
2023/06/23 05:00:40;;;;;;;5.43;2.35;;;;;;;16.97;97.96;101646.31;10471297;28;20064;-75
2023/06/23 05:05:43;;;;;;;7.93;3.13;;;;;;;16.98;97.88;101652.47;10466822;28;20076;-76
2023/06/23 05:10:46;;;;;;;4.40;2.05;;;;;;;17.01;97.81;101663.06;10448980;28;20502;-77
2023/06/23 05:15:48;;;;;;;3.85;1.85;;;;;;;17.00;97.80;101666.63;10473114;28;20066;-76
2023/06/23 05:20:53;;;;;;;3.80;2.10;;;;;;;17.02;98.00;101670.16;10472688;28;20139;-75
2023/06/23 05:25:57;;;;;;;6.22;2.28;;;;;;;17.07;98.08;101671.94;10469942;28;20049;-75
2023/06/23 05:31:00;;;;;;;3.33;1.52;;;;;;;17.07;97.91;101674.59;10471987;28;20138;-76
2023/06/23 05:36:04;;;;;;;4.32;2.50;;;;;;;17.14;98.04;101689.63;10453710;28;20080;-75
2023/06/23 05:41:05;;;;;;;6.93;2.50;;;;;;;17.13;98.07;101708.13;10465171;28;20094;-75
2023/06/23 05:46:12;;;;;;;5.80;2.13;;;;;;;17.00;98.12;101701.00;10472714;28;20110;-75
2023/06/23 05:51:18;;;;;;;15.43;2.83;;;;;;;16.89;98.14;101703.56;10478970;28;20047;-75
2023/06/23 05:56:32;;;;;;;5.07;2.38;;;;;;;16.86;97.99;101715.00;10484652;28;20052;-75
2023/06/23 06:01:40;;;;;;;4.85;2.40;;;;;;;16.77;98.30;101717.59;10478262;28;20048;-76
2023/06/23 06:06:44;;;;;;;8.07;2.92;;;;;;;16.72;98.20;101737.81;10461847;28;20048;-75
2023/06/23 06:11:46;;;;;;;4.82;2.55;;;;;;;16.73;98.22;101753.72;10454384;28;20090;-75
2023/06/23 06:16:50;;;;;;;4.63;2.38;;;;;;;16.65;98.36;101750.13;10461712;28;20127;-76
2023/06/23 06:21:54;;;;;;;5.30;2.22;;;;;;;16.63;98.52;101762.44;10477784;28;21113;-77
2023/06/23 06:26:59;;;;;;;4.35;1.88;;;;;;;16.64;98.59;101768.63;10479050;28;20421;-76
2023/06/23 06:32:07;;;;;;;5.78;2.65;;;;;;;16.69;98.71;101778.34;10481690;28;20044;-76
2023/06/23 06:37:10;;;;;;;4.50;2.10;;;;;;;16.70;98.57;101788.06;10480762;28;20064;-76
2023/06/23 06:42:11;;;;;;;4.95;2.33;;;;;;;16.76;98.69;101796.03;10484012;28;20123;-77
2023/06/23 06:47:17;;;;;;;3.90;1.90;;;;;;;16.82;98.76;101791.69;10450291;28;20530;-78
2023/06/23 06:52:20;;;;;;;7.05;2.15;;;;;;;16.90;98.81;101797.94;10476666;28;20131;-77
2023/06/23 06:57:26;;;;;;;5.90;2.72;;;;;;;17.03;98.93;101789.22;10483045;28;20048;-78
2023/06/23 07:02:28;;;;;;;3.65;1.90;;;;;;;17.05;98.83;101798.03;10469222;28;20129;-78
2023/06/23 07:07:30;;;;;;;4.32;2.20;;;;;;;17.07;98.67;101793.66;10486704;28;20083;-78
2023/06/23 07:12:32;;;;;;;17.25;3.15;;;;;;;17.14;98.57;101803.41;10488390;28;20075;-78
2023/06/23 07:17:34;;;;;;;9.05;2.17;;;;;;;17.25;98.68;101811.41;10486480;28;20701;-78
2023/06/23 07:22:39;;;;;;;5.07;2.45;;;;;;;17.35;98.48;101828.22;10469629;28;20066;-77
2023/06/23 07:27:41;;;;;;;8.48;2.72;;;;;;;17.41;98.48;101835.31;10481203;28;20094;-78
2023/06/23 07:32:45;;;;;;;6.25;2.00;;;;;;;17.41;98.24;101846.78;10486868;28;20574;-78
2023/06/23 07:37:47;;;;;;;5.78;2.60;;;;;;;17.39;97.82;101853.81;10450534;28;20049;-79
2023/06/23 07:42:49;;;;;;;7.57;3.20;;;;;;;17.43;97.99;101862.66;10486825;28;20144;-79
2023/06/23 07:47:51;;;;;;;5.50;2.20;;;;;;;17.54;97.70;101873.34;10487295;28;20060;-79
2023/06/23 07:52:54;;;;;;;5.50;2.75;;;;;;;17.67;97.89;101869.88;10485025;28;20050;-78
2023/06/23 07:57:56;;;;;;;4.32;2.00;;;;;;;17.79;97.76;101879.63;10487918;28;20060;-78
2023/06/23 08:02:57;;;;;;;11.02;2.65;;;;;;;18.00;97.67;101881.53;10479564;28;20135;-79
2023/06/23 08:07:59;;;;;;;6.00;2.33;;;;;;;18.18;97.37;101881.59;10486702;28;20049;-78
2023/06/23 08:13:01;;;;;;;7.28;2.85;;;;;;;18.23;97.07;101883.38;10486950;28;20049;-79
2023/06/23 08:18:02;;;;;;;7.25;2.10;;;;;;;18.32;96.90;101889.56;10467024;28;20128;-79
2023/06/23 08:23:04;;;;;;;7.38;2.85;;;;;;;18.55;96.69;101891.38;10464056;28;20095;-79
2023/06/23 08:28:06;;;;;;;5.07;2.30;;;;;;;18.69;96.55;101907.31;10470589;28;20045;-79
2023/06/23 08:33:09;;;;;;;7.28;2.90;;;;;;;18.83;96.03;101908.22;10471839;28;20052;-79
2023/06/23 08:38:13;;;;;;;9.23;2.78;;;;;;;19.07;95.66;101901.19;10470882;28;20045;-79
2023/06/23 08:43:25;;;;;;;4.82;2.60;;;;;;;19.31;95.08;101910.03;10484860;28;20063;-79
2023/06/23 08:48:29;;;;;;;6.22;2.70;;;;;;;19.47;94.34;101910.84;10482584;28;20037;-79
2023/06/23 08:53:31;;;;;;;6.43;2.47;;;;;;;19.84;93.55;101922.31;10465124;28;20048;-78
2023/06/23 08:58:33;;;;;;;6.82;2.97;;;;;;;20.11;92.61;101933.72;10465871;28;20110;-78
2023/06/23 09:03:35;;;;;;;6.47;3.05;;;;;;;20.44;91.50;101935.31;10465503;28;20139;-78
2023/06/23 09:08:37;;;;;;;4.93;2.42;;;;;;;20.75;89.61;101939.63;10463317;28;20053;-78
2023/06/23 09:13:44;;;;;;;6.13;2.83;;;;;;;21.36;88.83;101949.75;10464727;28;20748;-78
2023/06/23 09:18:47;;;;;;;6.15;2.38;;;;;;;21.83;86.55;101952.84;10468205;28;20507;-78
2023/06/23 09:23:58;;;;;;;3.05;1.73;;;;;;;22.20;84.57;101956.84;10470372;28;20056;-79
2023/06/23 09:29:17;;;;;;;5.13;2.53;;;;;;;22.29;81.89;101961.19;10462902;28;20539;-76
2023/06/23 09:34:26;;;;;;;4.38;2.13;;;;;;;22.09;79.79;101969.47;10462970;28;20096;-77
2023/06/23 09:39:36;;;;;;;5.97;2.60;;;;;;;22.13;78.39;101969.41;10466682;28;20554;-77
2023/06/23 09:44:45;;;;;;;7.47;2.60;;;;;;;22.45;79.25;101975.25;10469476;28;20041;-76
2023/06/23 09:49:49;;;;;;;7.05;2.60;;;;;;;21.99;78.30;101988.25;10427920;28;20104;-77
2023/06/23 09:54:51;;;;;;;4.78;2.30;;;;;;;22.30;78.92;101990.53;10388597;28;20711;-76
2023/06/23 09:59:53;;;;;;;4.18;2.20;;;;;;;22.62;78.06;101997.22;10441991;28;20052;-76
2023/06/23 10:05:01;;;;;;;6.30;2.45;;;;;;;23.05;77.25;101991.25;10456090;28;20135;-76
2023/06/23 10:10:07;;;;;;;7.32;2.17;;;;;;;23.16;76.32;102000.94;10403895;28;20497;-75
2023/06/23 10:15:12;;;;;;;6.03;2.50;;;;;;;22.73;75.35;102011.31;10459608;28;20131;-75
2023/06/23 10:20:13;;;;;;;4.50;2.42;;;;;;;23.03;76.01;102011.78;10452120;28;20036;-75
2023/06/23 10:25:17;;;;;;;7.90;2.72;;;;;;;22.74;75.19;102029.13;10452063;28;20109;-75
2023/06/23 10:30:19;;;;;;;6.38;2.10;;;;;;;22.74;75.70;102026.44;10454510;28;20720;-75
2023/06/23 10:35:23;;;;;;;5.88;2.28;;;;;;;22.87;75.45;102023.59;10442031;28;20040;-76
2023/06/23 10:40:26;;;;;;;5.13;2.20;;;;;;;22.56;74.92;102032.03;10445525;28;20040;-75
2023/06/23 10:45:28;;;;;;;8.00;2.38;;;;;;;22.69;75.06;102049.66;10444099;28;20036;-75
2023/06/23 10:50:30;;;;;;;3.95;2.05;;;;;;;23.10;74.40;102044.63;10451133;28;20042;-75
2023/06/23 10:55:43;;;;;;;15.52;2.92;;;;;;;23.07;72.85;102042.84;10473348;28;20048;-75
2023/06/23 11:01:04;;;;;;;5.63;2.40;;;;;;;22.95;72.53;102056.41;10469248;28;20049;-74
2023/06/23 11:06:08;;;;;;;5.28;2.13;;;;;;;23.04;71.76;102061.59;10456789;28;20091;-75
2023/06/23 11:11:13;;;;;;;7.43;1.88;;;;;;;23.19;71.13;102049.84;10449471;28;20201;-75
2023/06/23 11:16:26;;;;;;;5.47;2.17;;;;;;;23.39;71.22;102057.56;10443668;28;20045;-75
2023/06/23 11:21:38;;;;;;;7.85;3.10;;;;;;;23.33;70.35;102073.69;10443680;28;20471;-75
2023/06/23 11:26:59;;;;;;;4.60;1.83;;;;;;;23.55;69.70;102062.63;10472142;28;20045;-75
2023/06/23 11:32:20;;;;;;;3.83;1.70;;;;;;;24.25;68.69;102063.16;10437628;28;20128;-75
2023/06/23 11:37:23;;;;;;;4.03;2.13;;;;;;;24.80;67.57;102069.19;10441217;28;20072;-76
2023/06/23 11:42:25;;;;;;;4.65;1.80;;;;;;;24.78;65.45;102064.78;10446292;28;20045;-75
2023/06/23 11:47:28;;;;;;;4.03;1.77;;;;;;;24.77;63.46;102071.03;10389999;28;20536;-76
2023/06/23 11:52:35;;;;;;;2.75;1.55;;;;;;;24.95;62.90;102072.41;10441595;28;20053;-76
2023/06/23 11:57:37;;;;;;;3.70;1.42;;;;;;;24.76;61.06;102074.66;10432723;28;20125;-76
2023/06/23 12:02:38;;;;;;;2.67;1.40;;;;;;;24.88;59.86;102079.72;10427688;28;20045;-76
2023/06/23 12:07:40;;;;;;;1.85;1.40;;;;;;;24.80;58.43;102090.63;10426615;28;20574;-78
2023/06/23 12:12:43;;;;;;;6.30;1.45;;;;;;;24.53;58.73;102094.75;10436902;28;20076;-76
2023/06/23 12:17:45;;;;;;;3.95;1.73;;;;;;;24.81;58.19;102096.84;10410580;28;20053;-77
2023/06/23 12:22:49;;;;;;;5.18;1.35;;;;;;;25.10;57.18;102095.31;10441284;28;20131;-77
2023/06/23 12:27:54;;;;;;;3.10;1.50;;;;;;;25.20;55.43;102097.72;10404500;28;20053;-77
2023/06/23 12:32:59;;;;;;;4.63;1.83;;;;;;;25.43;56.35;102084.72;10440390;28;20088;-77
2023/06/23 12:38:01;;;;;;;5.50;1.63;;;;;;;25.84;56.51;102074.75;10417456;28;20053;-77
2023/06/23 12:43:03;;;;;;;2.17;1.33;;;;;;;25.84;54.76;102090.84;10423973;28;20104;-77
2023/06/23 12:48:08;;;;;;;3.40;1.30;;;;;;;25.85;53.68;102089.91;10440793;28;20111;-77
2023/06/23 12:53:10;;;;;;;3.45;1.70;;;;;;;25.71;53.87;102090.28;10438656;28;20511;-77
2023/06/23 12:58:12;;;;;;;4.03;2.25;;;;;;;25.88;54.61;102077.31;10440532;28;20069;-75
2023/06/23 13:03:15;;;;;;;3.40;1.27;;;;;;;25.38;53.94;102076.81;10440824;28;20041;-74
2023/06/23 13:08:21;;;;;;;2.25;1.50;;;;;;;25.03;55.17;102078.50;10439525;28;20071;-74
2023/06/23 13:13:23;;;;;;;2.67;1.30;;;;;;;24.66;55.52;102071.28;10381656;28;20045;-73
2023/06/23 13:18:24;;;;;;;4.03;1.60;;;;;;;24.97;56.06;102073.28;10387547;28;20099;-74
2023/06/23 13:23:26;;;;;;;4.80;1.55;;;;;;;25.16;56.14;102074.63;10421468;28;20403;-74
2023/06/23 13:28:27;;;;;;;3.03;1.50;;;;;;;25.52;55.70;102069.31;10407007;28;20045;-74
2023/06/23 13:33:29;;;;;;;3.08;1.52;;;;;;;25.13;54.22;102072.00;10430071;28;20576;-74
2023/06/23 13:38:31;;;;;;;2.42;1.20;;;;;;;24.86;54.42;102065.47;10453572;28;20045;-77
2023/06/23 13:43:32;;;;;;;2.30;1.15;;;;;;;24.88;54.42;102066.34;10419496;28;20052;-76
2023/06/23 13:48:34;;;;;;;1.73;1.10;;;;;;;25.18;54.67;102069.22;10437561;28;20731;-76
2023/06/23 13:53:38;;;;;;;5.13;1.42;;;;;;;25.26;53.96;102071.72;10410438;28;20049;-75
2023/06/23 13:58:40;;;;;;;1.85;1.17;;;;;;;24.96;53.81;102071.50;10393459;28;20045;-74
2023/06/23 14:03:42;;;;;;;1.98;1.23;;;;;;;24.84;54.30;102065.50;10407320;28;20146;-76
2023/06/23 14:08:44;;;;;;;2.95;1.40;;;;;;;24.66;53.98;102076.63;10427641;28;20236;-76
2023/06/23 14:13:46;;;;;;;2.05;1.05;;;;;;;24.86;54.26;102071.72;10429854;28;20519;-76
2023/06/23 14:18:48;;;;;;;1.92;1.17;;;;;;;25.13;53.21;102077.38;10434359;28;20063;-76
2023/06/23 14:23:50;;;;;;;2.75;1.30;;;;;;;25.32;52.99;102083.19;10417406;28;20060;-77
2023/06/23 14:28:51;;;;;;;2.25;1.17;;;;;;;25.11;51.45;102079.19;10417035;28;20067;-76
2023/06/23 14:33:53;;;;;;;11.75;1.50;;;;;;;25.40;53.01;102081.22;10432423;28;20156;-77
2023/06/23 14:38:54;;;;;;;2.97;1.63;;;;;;;25.41;51.74;102090.13;10426995;28;20045;-77
2023/06/23 14:43:56;;;;;;;3.92;1.35;;;;;;;25.31;51.50;102083.22;10428067;28;20136;-74
2023/06/23 14:48:59;;;;;;;2.50;1.30;;;;;;;25.30;51.99;102100.25;10445356;28;20084;-77
2023/06/23 14:54:00;;;;;;;3.17;1.33;;;;;;;25.15;51.86;102102.31;10425354;28;20107;-77
2023/06/23 14:59:02;;;;;;;2.90;1.13;;;;;;;24.97;51.92;102092.03;10426610;28;20144;-76
2023/06/23 15:04:03;;;;;;;2.40;1.20;;;;;;;25.05;51.92;102092.72;10444206;28;20052;-74
2023/06/23 15:09:05;;;;;;;2.97;1.30;;;;;;;25.26;50.67;102090.47;10444370;28;20052;-72
2023/06/23 15:14:07;;;;;;;1.80;0.98;;;;;;;25.41;49.78;102106.22;10443809;28;20041;-75
2023/06/23 15:19:12;;;;;;;1.90;1.15;;;;;;;25.51;49.61;102107.75;10441734;28;20132;-76
2023/06/23 15:24:14;;;;;;;3.67;1.38;;;;;;;25.16;47.77;102114.81;10443588;28;20056;-77
2023/06/23 15:29:16;;;;;;;1.88;1.00;;;;;;;25.04;46.54;102121.34;10454823;28;20132;-75
2023/06/23 15:34:17;;;;;;;2.88;1.10;;;;;;;25.10;46.79;102120.31;10457901;28;20135;-75
2023/06/23 15:39:19;;;;;;;3.05;1.48;;;;;;;25.00;46.86;102125.00;10443785;28;20134;-75
2023/06/23 15:44:21;;;;;;;2.15;1.20;;;;;;;25.19;47.25;102130.81;10444399;28;20049;-78
2023/06/23 15:49:25;;;;;;;2.35;1.17;;;;;;;25.32;47.80;102125.22;10413402;28;20404;-79
2023/06/23 15:54:27;;;;;;;1.75;1.00;;;;;;;25.56;46.57;102131.78;10440137;28;20041;-77
2023/06/23 15:59:32;;;;;;;3.38;1.30;;;;;;;25.24;44.33;102145.00;10448846;28;20045;-79
2023/06/23 16:04:34;;;;;;;2.60;1.10;;;;;;;25.06;43.44;102148.09;10451670;28;20151;-80
2023/06/23 16:09:36;;;;;;;2.00;0.98;;;;;;;25.06;44.09;102150.78;10443773;28;20095;-77
2023/06/23 16:14:39;;;;;;;4.40;1.60;;;;;;;24.82;44.28;102160.22;10449290;28;20041;-82
2023/06/23 16:19:41;;;;;;;2.35;1.00;;;;;;;24.66;44.41;102149.81;10454069;28;20040;-76
2023/06/23 16:24:42;;;;;;;2.72;1.30;;;;;;;24.40;45.31;102160.13;10444956;28;20076;-76
2023/06/23 16:29:44;;;;;;;3.25;1.40;;;;;;;24.44;46.37;102159.16;10474305;28;20143;-76
2023/06/23 16:34:46;;;;;;;2.13;1.13;;;;;;;24.30;46.87;102170.13;10455966;28;20044;-75
2023/06/23 16:39:47;;;;;;;1.83;1.30;;;;;;;24.24;46.77;102181.81;10423703;28;20080;-74
2023/06/23 16:44:49;;;;;;;1.88;1.08;;;;;;;23.90;47.26;102176.16;10394187;28;20053;-76
2023/06/23 16:49:53;;;;;;;2.67;1.27;;;;;;;23.87;48.20;102192.25;10439975;28;20041;-76
2023/06/23 16:54:54;;;;;;;2.53;1.40;;;;;;;23.29;49.17;102186.88;10422067;28;20132;-76
2023/06/23 16:59:56;;;;;;;5.20;1.60;;;;;;;23.10;50.58;102184.47;10430729;28;20075;-78
2023/06/23 17:04:59;;;;;;;3.42;1.17;;;;;;;22.92;51.41;102200.66;10443046;28;20045;-76
2023/06/23 17:10:01;;;;;;;1.75;1.17;;;;;;;22.87;52.27;102202.53;10440452;28;20426;-76
2023/06/23 17:15:04;;;;;;;2.65;1.27;;;;;;;23.06;53.18;102212.06;10440966;28;20057;-76
2023/06/23 17:20:07;;;;;;;2.30;1.20;;;;;;;23.55;52.33;102213.22;10441416;28;20053;-76
2023/06/23 17:25:09;;;;;;;3.10;1.45;;;;;;;24.11;51.94;102213.28;10440949;28;20156;-77
2023/06/23 17:30:15;;;;;;;8.98;1.25;;;;;;;24.08;51.05;102221.34;10424195;28;20128;-76
2023/06/23 17:35:17;;;;;;;1.35;0.90;;;;;;;23.83;51.54;102223.50;10423577;28;20043;-76
2023/06/23 17:40:25;;;;;;;2.08;1.10;;;;;;;23.21;50.31;102226.16;10441443;28;20107;-76
2023/06/23 17:45:28;;;;;;;2.45;1.05;;;;;;;22.07;49.53;102226.38;10430850;28;20493;-76
2023/06/23 17:50:36;;;;;;;3.08;1.17;;;;;;;21.57;50.43;102227.63;10433713;28;20106;-76
2023/06/23 17:55:39;;;;;;;3.42;1.27;;;;;;;21.17;52.25;102230.47;10448367;28;20048;-76
2023/06/23 18:00:40;;;;;;;3.15;1.13;;;;;;;20.94;53.24;102233.19;10428882;28;20041;-77
2023/06/23 18:05:42;;;;;;;3.30;1.15;;;;;;;20.83;54.46;102230.56;10393088;28;20519;-77
2023/06/23 18:10:46;;;;;;;3.53;1.08;;;;;;;20.49;55.11;102236.84;10448694;28;20471;-76
2023/06/23 18:15:47;;;;;;;4.15;1.42;;;;;;;20.14;56.41;102242.16;10447555;28;20136;-76
2023/06/23 18:20:49;;;;;;;3.03;1.38;;;;;;;19.99;56.87;102248.34;10462161;28;20119;-76
2023/06/23 18:25:50;;;;;;;2.97;1.40;;;;;;;19.69;57.85;102251.81;10434599;28;20575;-76
2023/06/23 18:30:52;;;;;;;3.03;1.65;;;;;;;19.48;58.40;102242.00;10407324;28;20045;-76
2023/06/23 18:35:54;;;;;;;1.77;1.10;;;;;;;19.43;59.34;102250.84;10416873;28;20102;-75
2023/06/23 18:40:56;;;;;;;2.25;1.17;;;;;;;19.35;59.93;102251.69;10460067;28;20047;-75
2023/06/23 18:45:57;;;;;;;1.63;1.10;;;;;;;19.35;60.43;102251.69;10434532;28;20063;-75
2023/06/23 18:51:00;;;;;;;1.40;1.00;;;;;;;19.19;60.86;102251.63;10439353;28;20218;-76
2023/06/23 18:56:01;;;;;;;4.53;1.50;;;;;;;19.16;61.97;102261.38;10408894;28;20123;-75
2023/06/23 19:01:04;;;;;;;4.85;1.55;;;;;;;18.92;62.91;102254.16;10427070;28;20606;-75
2023/06/23 19:06:06;;;;;;;4.72;1.15;;;;;;;18.79;63.24;102267.28;10435370;28;20073;-75
2023/06/23 19:11:08;;;;;;;3.65;1.50;;;;;;;18.76;64.19;102266.41;10395019;28;20043;-75
2023/06/23 19:16:10;;;;;;;4.15;1.48;;;;;;;18.64;64.73;102261.91;10445463;28;20049;-76
2023/06/23 19:21:11;;;;;;;4.45;1.40;;;;;;;18.55;65.31;102266.28;10423780;28;20120;-76
2023/06/23 19:26:14;;;;;;;3.10;1.48;;;;;;;18.41;66.44;102278.53;10435213;28;20114;-76
2023/06/23 19:31:15;;;;;;;2.83;1.50;;;;;;;18.30;66.46;102273.13;10416074;28;20041;-76
2023/06/23 19:36:17;;;;;;;3.03;1.63;;;;;;;18.23;67.46;102281.03;10432097;28;20049;-76
2023/06/23 19:41:19;;;;;;;8.52;1.85;;;;;;;18.14;68.14;102280.06;10407878;28;20045;-76
2023/06/23 19:46:21;;;;;;;3.75;1.60;;;;;;;18.04;69.04;102270.22;10440815;28;20052;-76
2023/06/23 19:51:22;;;;;;;6.25;1.15;;;;;;;18.01;69.55;102276.41;10442750;28;20467;-76
2023/06/23 19:56:24;;;;;;;2.65;1.27;;;;;;;17.98;70.30;102286.06;10441395;28;20049;-75
2023/06/23 20:01:26;;;;;;;9.60;1.75;;;;;;;17.92;70.48;102292.19;10419489;28;20616;-76
2023/06/23 20:06:28;;;;;;;3.30;1.35;;;;;;;17.88;71.37;102300.06;10439253;28;20045;-76
2023/06/23 20:11:29;;;;;;;4.47;1.73;;;;;;;17.80;71.94;102308.81;10440394;28;20069;-76
2023/06/23 20:16:32;;;;;;;3.40;1.65;;;;;;;17.72;72.47;102309.63;10441023;28;20113;-75
2023/06/23 20:21:34;;;;;;;4.85;2.17;;;;;;;17.67;72.94;102309.56;10399212;28;20048;-77
2023/06/23 20:26:35;;;;;;;4.10;1.80;;;;;;;17.64;73.46;102306.88;10436857;28;20575;-76
2023/06/23 20:31:37;;;;;;;2.85;1.45;;;;;;;17.59;74.30;102314.75;10433511;28;20045;-76
2023/06/23 20:36:38;;;;;;;3.75;1.90;;;;;;;17.56;74.18;102308.53;10419194;28;20132;-76
2023/06/23 20:41:41;;;;;;;4.88;2.50;;;;;;;17.52;74.62;102320.84;10417340;28;20049;-76
2023/06/23 20:46:43;;;;;;;4.57;2.08;;;;;;;17.44;74.89;102318.13;10422330;28;20506;-76
2023/06/23 20:51:45;;;;;;;3.55;1.58;;;;;;;17.42;75.24;102305.72;10440920;28;20147;-76
2023/06/23 20:56:46;;;;;;;10.45;2.28;;;;;;;17.43;75.63;102304.81;10442024;28;20107;-76
2023/06/23 21:01:48;;;;;;;5.13;2.25;;;;;;;17.37;75.88;102300.38;10442085;28;20095;-76
2023/06/23 21:06:50;;;;;;;5.30;2.22;;;;;;;17.27;76.35;102311.69;10441148;28;20056;-76
2023/06/23 21:11:51;;;;;;;4.60;2.25;;;;;;;17.14;76.85;102319.47;10439909;28;20045;-76
2023/06/23 21:16:53;;;;;;;4.93;1.77;;;;;;;17.10;77.22;102327.34;10440811;28;20103;-76
2023/06/23 21:21:54;;;;;;;4.93;2.05;;;;;;;17.08;77.73;102319.38;10447967;28;20041;-76
2023/06/23 21:26:56;;;;;;;4.45;1.90;;;;;;;17.10;77.96;102315.00;10448468;28;20122;-76
2023/06/23 21:31:57;;;;;;;4.22;2.20;;;;;;;17.13;78.27;102315.03;10447991;28;20036;-76
2023/06/23 21:36:59;;;;;;;6.22;2.58;;;;;;;17.11;78.47;102310.59;10448375;28;20537;-76
2023/06/23 21:42:01;;;;;;;6.15;2.53;;;;;;;17.08;78.44;102306.16;10429813;28;20629;-76
2023/06/23 21:47:03;;;;;;;5.72;2.13;;;;;;;17.09;78.75;102317.63;10447273;28;20459;-76
2023/06/23 21:52:05;;;;;;;7.78;2.17;;;;;;;17.04;79.09;102308.72;10429630;28;20123;-76
2023/06/23 21:57:06;;;;;;;4.88;2.28;;;;;;;16.98;79.29;102313.91;10447187;28;20136;-76
2023/06/23 22:02:08;;;;;;;10.40;2.90;;;;;;;17.02;79.51;102310.47;10446568;28;20047;-76
2023/06/23 22:07:10;;;;;;;6.20;2.38;;;;;;;17.00;79.85;102312.19;10442786;28;20064;-76
2023/06/23 22:12:12;;;;;;;5.03;2.55;;;;;;;16.97;79.87;102313.03;10463558;28;20056;-76
2023/06/23 22:17:14;;;;;;;5.00;2.08;;;;;;;16.94;80.29;102315.63;10429677;28;20056;-76
2023/06/23 22:22:15;;;;;;;5.57;2.33;;;;;;;16.96;80.38;102306.88;10404377;28;20475;-76
2023/06/23 22:27:17;;;;;;;6.15;2.88;;;;;;;16.91;80.48;102307.66;10404671;28;20156;-76
2023/06/23 22:32:18;;;;;;;6.82;3.05;;;;;;;16.85;80.68;102313.69;10405493;28;20460;-76
2023/06/23 22:37:20;;;;;;;6.93;2.10;;;;;;;16.83;80.72;102310.16;10430059;28;20049;-76
2023/06/23 22:42:22;;;;;;;5.57;2.58;;;;;;;16.72;80.96;102310.00;10445615;28;20041;-76
2023/06/23 22:47:23;;;;;;;9.68;2.35;;;;;;;16.64;81.40;102311.59;10428411;28;20049;-76
2023/06/23 22:52:26;;;;;;;8.68;2.22;;;;;;;16.57;81.71;102315.94;10417245;28;20045;-76
2023/06/23 22:57:28;;;;;;;5.30;2.38;;;;;;;16.50;81.97;102310.47;10386135;28;20743;-76
2023/06/23 23:02:30;;;;;;;4.57;2.22;;;;;;;16.41;82.33;102319.16;10386260;28;20042;-76
2023/06/23 23:07:32;;;;;;;6.03;2.55;;;;;;;16.33;82.51;102312.84;10404745;28;20041;-76
2023/06/23 23:12:33;;;;;;;8.63;3.17;;;;;;;16.26;82.84;102314.50;10386017;28;20041;-76